罗盘
风向 的 风向 260° Stade Airport 11/29
风: 5 kt, 2 beaufort

4 kt

3 kt
改变
0 1.000 2.000 3.000 4.000 5.000
BKN 400 ft
BKN 5.000 ft
METAR ETMN 291106Z 26005KT 5000 -RA BR BKN004 BKN050 10/10 Q1001 YLO WHT TEMPO YLO

METAR Stade Airport - EDHS

Stade Airport是Stade,德国中的小机场。 该机场有一条跑道: 11/29. 该领域的国际民航组织标志是EDHS.

这份报告是针对2022年9月29日 13:06, 当地时间在Nordholz Naval Airbase进行的。

机场观察

风向为260°,速度为5 kt。

可见度为5 km。

有碎云在400 ft的高度 和 碎云在5.000 ft的高度。 破损或更高的上限为400 ft。

当前天气为光 雨, 薄雾。 温度为10 °C,阵风为8 °C。 露点为10 °C,相对湿度为100%。 海平面上的气压为1001 hPa (QNH)。

发展趋势

  • 暂时的

    可变方向的风很小或没有。

白天

今天,太阳从07:20升起,在19:04降落。 这适用于Stade Airport,世界夏令时可能有所不同。 当地时间与世界标准时间之间的时差为+2 小时。 夏令时目前正在进行中。

公司介绍

我们没有关于这个机场的公司信息。

体会

到Vliegles.nl去找飞行课程,跳伞和其他飞行体验。 浏览页面,了解Stade Airport附近所有可用的活动。 你也可以使用搜索功能来寻找你所在地附近的特定飞行课程、跳伞或其他飞行体验。

跑道

Id 标题 侧风 逆风 侧风 %
11/29 110°-290° 3 kt 4 kt 50 %

逆风成分最大的方向会被突出显示,并用于横风计算。 这并不一定意味着这个方向在使用。

乌云

400 ft BKN 碎云
5.000 ft BKN 碎云

温度 & 天气

天气 光 雨
薄雾
温度 10 °C
露点 10 °C
相对湿度 100%
风寒 8 °C
Kp-index 2 (0-9)

白天

日出
07:23
中午
13:15
日落
19:07 (5h 49m)

小工具

你想在你的网站上有一个关于Stade Airport的当前航空天气(METAR)的小部件吗?

</> 显示HTML代码

我们和第三方通过cookies跟踪您在我们网站上的上网行为。如果您继续,我们认为您同意我们的cookie政策。 了解更多